sensor_id;sensor_type;location;lat;lon;timestamp;temperature;humidity
41262;DHT22;29629;52.532;13.352;2023-12-20T00:01:16;7.50;99.90
41262;DHT22;29629;52.532;13.352;2023-12-20T00:03:43;7.50;99.90
41262;DHT22;29629;52.532;13.352;2023-12-20T00:06:10;7.50;99.90
41262;DHT22;29629;52.532;13.352;2023-12-20T00:08:37;7.50;99.90
41262;DHT22;29629;52.532;13.352;2023-12-20T00:11:04;7.50;99.90
41262;DHT22;29629;52.532;13.352;2023-12-20T00:13:32;7.50;99.90
41262;DHT22;29629;52.532;13.352;2023-12-20T00:15:59;7.50;99.90
41262;DHT22;29629;52.532;13.352;2023-12-20T00:18:26;7.50;99.90
41262;DHT22;29629;52.532;13.352;2023-12-20T00:20:53;7.50;99.90
41262;DHT22;29629;52.532;13.352;2023-12-20T00:23:20;7.60;99.90
41262;DHT22;29629;52.532;13.352;2023-12-20T00:25:48;7.50;99.90
41262;DHT22;29629;52.532;13.352;2023-12-20T00:28:15;7.60;99.90
41262;DHT22;29629;52.532;13.352;2023-12-20T00:30:43;7.50;99.90
41262;DHT22;29629;52.532;13.352;2023-12-20T00:33:10;7.50;99.90
41262;DHT22;29629;52.532;13.352;2023-12-20T00:35:37;7.50;99.90
41262;DHT22;29629;52.532;13.352;2023-12-20T00:38:04;7.50;99.90
41262;DHT22;29629;52.532;13.352;2023-12-20T00:40:32;7.50;99.90
41262;DHT22;29629;52.532;13.352;2023-12-20T00:42:59;7.50;99.90
41262;DHT22;29629;52.532;13.352;2023-12-20T00:45:26;7.50;99.90
41262;DHT22;29629;52.532;13.352;2023-12-20T00:47:55;7.50;99.90
41262;DHT22;29629;52.532;13.352;2023-12-20T00:50:21;7.50;99.90
41262;DHT22;29629;52.532;13.352;2023-12-20T00:52:48;7.60;99.90
41262;DHT22;29629;52.532;13.352;2023-12-20T00:55:15;7.50;99.90
41262;DHT22;29629;52.532;13.352;2023-12-20T00:57:42;7.50;99.90
41262;DHT22;29629;52.532;13.352;2023-12-20T01:00:10;7.60;99.90
41262;DHT22;29629;52.532;13.352;2023-12-20T01:02:38;7.50;99.90
41262;DHT22;29629;52.532;13.352;2023-12-20T01:05:07;7.50;99.90
41262;DHT22;29629;52.532;13.352;2023-12-20T01:07:35;7.50;99.90
41262;DHT22;29629;52.532;13.352;2023-12-20T01:10:01;7.50;99.90
41262;DHT22;29629;52.532;13.352;2023-12-20T01:12:29;7.50;99.90
41262;DHT22;29629;52.532;13.352;2023-12-20T01:14:55;7.50;99.90
41262;DHT22;29629;52.532;13.352;2023-12-20T01:17:24;7.50;99.90
41262;DHT22;29629;52.532;13.352;2023-12-20T01:19:51;7.50;99.90
41262;DHT22;29629;52.532;13.352;2023-12-20T01:22:19;7.50;99.90
41262;DHT22;29629;52.532;13.352;2023-12-20T01:24:46;7.50;99.90
41262;DHT22;29629;52.532;13.352;2023-12-20T01:27:13;7.50;99.90
41262;DHT22;29629;52.532;13.352;2023-12-20T01:29:40;7.40;99.90
41262;DHT22;29629;52.532;13.352;2023-12-20T01:32:07;7.50;99.90
41262;DHT22;29629;52.532;13.352;2023-12-20T01:34:34;7.50;99.90
41262;DHT22;29629;52.532;13.352;2023-12-20T01:37:01;7.50;99.90
41262;DHT22;29629;52.532;13.352;2023-12-20T01:39:29;7.50;99.90
41262;DHT22;29629;52.532;13.352;2023-12-20T01:41:56;7.60;99.90
41262;DHT22;29629;52.532;13.352;2023-12-20T01:44:23;7.40;99.90
41262;DHT22;29629;52.532;13.352;2023-12-20T01:46:50;7.40;99.90
41262;DHT22;29629;52.532;13.352;2023-12-20T01:49:17;7.50;99.90
41262;DHT22;29629;52.532;13.352;2023-12-20T01:51:45;7.40;99.90
41262;DHT22;29629;52.532;13.352;2023-12-20T01:54:12;7.50;99.90
41262;DHT22;29629;52.532;13.352;2023-12-20T01:56:41;7.40;99.90
41262;DHT22;29629;52.532;13.352;2023-12-20T01:59:08;7.50;99.90
41262;DHT22;29629;52.532;13.352;2023-12-20T02:01:35;7.50;99.90
41262;DHT22;29629;52.532;13.352;2023-12-20T02:04:03;7.50;99.90
41262;DHT22;29629;52.532;13.352;2023-12-20T02:06:30;7.50;99.90
41262;DHT22;29629;52.532;13.352;2023-12-20T02:08:57;7.50;99.90
41262;DHT22;29629;52.532;13.352;2023-12-20T02:11:25;7.50;99.90
41262;DHT22;29629;52.532;13.352;2023-12-20T02:13:53;7.50;99.90
41262;DHT22;29629;52.532;13.352;2023-12-20T02:16:21;7.40;99.90
41262;DHT22;29629;52.532;13.352;2023-12-20T02:18:48;7.30;99.90
41262;DHT22;29629;52.532;13.352;2023-12-20T02:21:15;7.40;99.90
41262;DHT22;29629;52.532;13.352;2023-12-20T02:23:44;7.40;99.90
41262;DHT22;29629;52.532;13.352;2023-12-20T02:26:11;7.40;99.90
41262;DHT22;29629;52.532;13.352;2023-12-20T02:28:39;7.40;99.90
41262;DHT22;29629;52.532;13.352;2023-12-20T02:31:06;7.50;99.90
41262;DHT22;29629;52.532;13.352;2023-12-20T02:33:33;7.40;99.90
41262;DHT22;29629;52.532;13.352;2023-12-20T02:36:00;7.50;99.90
41262;DHT22;29629;52.532;13.352;2023-12-20T02:38:27;7.50;99.90
41262;DHT22;29629;52.532;13.352;2023-12-20T02:40:55;7.50;99.90
41262;DHT22;29629;52.532;13.352;2023-12-20T02:43:22;7.40;99.90
41262;DHT22;29629;52.532;13.352;2023-12-20T02:45:49;7.50;99.90
41262;DHT22;29629;52.532;13.352;2023-12-20T02:48:16;7.40;99.90
41262;DHT22;29629;52.532;13.352;2023-12-20T02:50:43;7.50;99.90
41262;DHT22;29629;52.532;13.352;2023-12-20T02:53:10;7.60;99.90
41262;DHT22;29629;52.532;13.352;2023-12-20T02:55:37;7.50;99.90
41262;DHT22;29629;52.532;13.352;2023-12-20T02:58:05;7.50;99.90
41262;DHT22;29629;52.532;13.352;2023-12-20T03:00:32;7.50;99.90
41262;DHT22;29629;52.532;13.352;2023-12-20T03:02:59;7.50;99.90
41262;DHT22;29629;52.532;13.352;2023-12-20T03:05:26;7.60;99.90
41262;DHT22;29629;52.532;13.352;2023-12-20T03:07:53;7.60;99.90
41262;DHT22;29629;52.532;13.352;2023-12-20T03:10:20;7.60;99.90
41262;DHT22;29629;52.532;13.352;2023-12-20T03:12:47;7.60;99.90
41262;DHT22;29629;52.532;13.352;2023-12-20T03:15:16;7.60;99.90
41262;DHT22;29629;52.532;13.352;2023-12-20T03:17:42;7.60;99.90
41262;DHT22;29629;52.532;13.352;2023-12-20T03:20:09;7.60;99.90
41262;DHT22;29629;52.532;13.352;2023-12-20T03:22:36;7.50;99.90
41262;DHT22;29629;52.532;13.352;2023-12-20T03:25:04;7.50;99.90
41262;DHT22;29629;52.532;13.352;2023-12-20T03:27:31;7.50;99.90
41262;DHT22;29629;52.532;13.352;2023-12-20T03:29:58;7.50;99.90
41262;DHT22;29629;52.532;13.352;2023-12-20T03:32:26;7.50;99.90
41262;DHT22;29629;52.532;13.352;2023-12-20T03:34:53;7.40;99.90
41262;DHT22;29629;52.532;13.352;2023-12-20T03:37:19;7.50;99.90
41262;DHT22;29629;52.532;13.352;2023-12-20T03:39:46;7.40;99.90
41262;DHT22;29629;52.532;13.352;2023-12-20T03:42:13;7.40;99.90
41262;DHT22;29629;52.532;13.352;2023-12-20T03:44:40;7.40;99.90
41262;DHT22;29629;52.532;13.352;2023-12-20T03:47:08;7.50;99.90
41262;DHT22;29629;52.532;13.352;2023-12-20T03:49:36;7.40;99.90
41262;DHT22;29629;52.532;13.352;2023-12-20T03:52:04;7.40;99.90
41262;DHT22;29629;52.532;13.352;2023-12-20T03:54:31;7.40;99.90
41262;DHT22;29629;52.532;13.352;2023-12-20T03:56:58;7.30;99.90
41262;DHT22;29629;52.532;13.352;2023-12-20T03:59:25;7.30;99.90
41262;DHT22;29629;52.532;13.352;2023-12-20T04:01:52;7.20;99.90
41262;DHT22;29629;52.532;13.352;2023-12-20T04:04:19;7.30;99.90
41262;DHT22;29629;52.532;13.352;2023-12-20T04:06:47;7.30;99.90
41262;DHT22;29629;52.532;13.352;2023-12-20T04:09:14;7.30;99.90
41262;DHT22;29629;52.532;13.352;2023-12-20T04:11:41;7.20;99.90
41262;DHT22;29629;52.532;13.352;2023-12-20T04:14:08;7.20;99.90
41262;DHT22;29629;52.532;13.352;2023-12-20T04:16:35;7.10;99.90
41262;DHT22;29629;52.532;13.352;2023-12-20T04:19:02;7.10;99.90
41262;DHT22;29629;52.532;13.352;2023-12-20T04:21:30;7.10;99.90
41262;DHT22;29629;52.532;13.352;2023-12-20T04:23:58;7.00;99.90
41262;DHT22;29629;52.532;13.352;2023-12-20T04:26:25;6.90;99.90
41262;DHT22;29629;52.532;13.352;2023-12-20T04:28:52;7.00;99.90
41262;DHT22;29629;52.532;13.352;2023-12-20T04:31:19;7.00;99.90
41262;DHT22;29629;52.532;13.352;2023-12-20T04:33:45;7.00;99.90
41262;DHT22;29629;52.532;13.352;2023-12-20T04:36:12;6.90;99.90
41262;DHT22;29629;52.532;13.352;2023-12-20T04:38:39;6.90;99.90
41262;DHT22;29629;52.532;13.352;2023-12-20T04:41:08;6.90;99.90
41262;DHT22;29629;52.532;13.352;2023-12-20T04:43:35;6.90;99.90
41262;DHT22;29629;52.532;13.352;2023-12-20T04:46:02;6.90;99.90
41262;DHT22;29629;52.532;13.352;2023-12-20T04:48:29;6.80;99.90
41262;DHT22;29629;52.532;13.352;2023-12-20T04:50:55;6.80;99.90
41262;DHT22;29629;52.532;13.352;2023-12-20T04:53:22;6.80;99.90
41262;DHT22;29629;52.532;13.352;2023-12-20T04:55:49;6.80;99.90
41262;DHT22;29629;52.532;13.352;2023-12-20T04:58:18;6.80;99.90
41262;DHT22;29629;52.532;13.352;2023-12-20T05:00:44;6.80;99.90
41262;DHT22;29629;52.532;13.352;2023-12-20T05:03:11;6.70;99.90
41262;DHT22;29629;52.532;13.352;2023-12-20T05:05:39;6.80;99.90
41262;DHT22;29629;52.532;13.352;2023-12-20T05:08:06;6.70;99.90
41262;DHT22;29629;52.532;13.352;2023-12-20T05:10:33;6.80;99.90
41262;DHT22;29629;52.532;13.352;2023-12-20T05:13:00;6.70;99.90
41262;DHT22;29629;52.532;13.352;2023-12-20T05:15:29;6.80;99.90
41262;DHT22;29629;52.532;13.352;2023-12-20T05:17:56;6.80;99.90
41262;DHT22;29629;52.532;13.352;2023-12-20T05:20:22;6.70;99.90
41262;DHT22;29629;52.532;13.352;2023-12-20T05:22:50;6.70;99.90
41262;DHT22;29629;52.532;13.352;2023-12-20T05:25:16;6.60;99.90
41262;DHT22;29629;52.532;13.352;2023-12-20T05:27:44;6.50;99.90
41262;DHT22;29629;52.532;13.352;2023-12-20T05:30:11;6.50;99.90
41262;DHT22;29629;52.532;13.352;2023-12-20T05:32:40;6.40;99.90
41262;DHT22;29629;52.532;13.352;2023-12-20T05:35:07;6.40;99.90
41262;DHT22;29629;52.532;13.352;2023-12-20T05:37:34;6.40;99.90
41262;DHT22;29629;52.532;13.352;2023-12-20T05:40:01;6.40;99.90
41262;DHT22;29629;52.532;13.352;2023-12-20T05:42:28;6.30;99.90
41262;DHT22;29629;52.532;13.352;2023-12-20T05:44:55;6.30;99.90
41262;DHT22;29629;52.532;13.352;2023-12-20T05:47:22;6.30;99.90
41262;DHT22;29629;52.532;13.352;2023-12-20T05:49:50;6.20;99.90
41262;DHT22;29629;52.532;13.352;2023-12-20T05:52:17;6.20;99.90
41262;DHT22;29629;52.532;13.352;2023-12-20T05:54:44;6.20;99.90
41262;DHT22;29629;52.532;13.352;2023-12-20T05:57:11;6.10;99.90
41262;DHT22;29629;52.532;13.352;2023-12-20T05:59:38;6.10;99.90
41262;DHT22;29629;52.532;13.352;2023-12-20T06:02:05;6.10;99.90
41262;DHT22;29629;52.532;13.352;2023-12-20T06:04:32;6.10;99.90
41262;DHT22;29629;52.532;13.352;2023-12-20T06:07:00;6.10;99.90
41262;DHT22;29629;52.532;13.352;2023-12-20T06:09:27;6.10;99.90
41262;DHT22;29629;52.532;13.352;2023-12-20T06:11:54;6.10;99.90
41262;DHT22;29629;52.532;13.352;2023-12-20T06:14:21;6.10;99.90
41262;DHT22;29629;52.532;13.352;2023-12-20T06:16:48;6.00;99.90
41262;DHT22;29629;52.532;13.352;2023-12-20T06:19:15;6.00;99.90
41262;DHT22;29629;52.532;13.352;2023-12-20T06:21:42;6.10;99.90
41262;DHT22;29629;52.532;13.352;2023-12-20T06:24:10;6.10;99.90
41262;DHT22;29629;52.532;13.352;2023-12-20T06:26:37;6.00;99.90
41262;DHT22;29629;52.532;13.352;2023-12-20T06:29:04;6.10;99.90
41262;DHT22;29629;52.532;13.352;2023-12-20T06:31:31;6.00;99.90
41262;DHT22;29629;52.532;13.352;2023-12-20T06:33:59;6.00;99.90
41262;DHT22;29629;52.532;13.352;2023-12-20T06:36:26;6.10;99.90
41262;DHT22;29629;52.532;13.352;2023-12-20T06:38:53;6.10;99.90
41262;DHT22;29629;52.532;13.352;2023-12-20T06:41:21;6.10;99.90
41262;DHT22;29629;52.532;13.352;2023-12-20T06:43:50;6.10;99.90
41262;DHT22;29629;52.532;13.352;2023-12-20T06:46:17;6.00;99.90
41262;DHT22;29629;52.532;13.352;2023-12-20T06:48:44;6.00;99.90
41262;DHT22;29629;52.532;13.352;2023-12-20T06:51:13;5.90;99.90
41262;DHT22;29629;52.532;13.352;2023-12-20T06:53:40;6.00;99.90
41262;DHT22;29629;52.532;13.352;2023-12-20T06:56:08;6.10;99.90
41262;DHT22;29629;52.532;13.352;2023-12-20T06:58:37;6.10;99.90
41262;DHT22;29629;52.532;13.352;2023-12-20T07:01:04;6.10;99.90
41262;DHT22;29629;52.532;13.352;2023-12-20T07:03:31;6.00;99.90
41262;DHT22;29629;52.532;13.352;2023-12-20T07:05:58;6.00;99.90
41262;DHT22;29629;52.532;13.352;2023-12-20T07:08:25;6.10;99.90
41262;DHT22;29629;52.532;13.352;2023-12-20T07:10:52;6.10;99.90
41262;DHT22;29629;52.532;13.352;2023-12-20T07:13:19;6.10;99.90
41262;DHT22;29629;52.532;13.352;2023-12-20T07:15:47;6.20;99.90
41262;DHT22;29629;52.532;13.352;2023-12-20T07:18:14;6.10;99.90
41262;DHT22;29629;52.532;13.352;2023-12-20T07:20:41;6.20;99.90
41262;DHT22;29629;52.532;13.352;2023-12-20T07:23:08;6.20;99.90
41262;DHT22;29629;52.532;13.352;2023-12-20T07:25:35;6.20;99.90
41262;DHT22;29629;52.532;13.352;2023-12-20T07:28:02;6.20;99.90
41262;DHT22;29629;52.532;13.352;2023-12-20T07:30:29;6.10;99.90
41262;DHT22;29629;52.532;13.352;2023-12-20T07:32:58;6.10;99.90
41262;DHT22;29629;52.532;13.352;2023-12-20T07:35:25;6.20;99.90
41262;DHT22;29629;52.532;13.352;2023-12-20T07:37:51;6.20;99.90
41262;DHT22;29629;52.532;13.352;2023-12-20T07:40:18;6.20;99.90
41262;DHT22;29629;52.532;13.352;2023-12-20T07:42:45;6.20;99.90
41262;DHT22;29629;52.532;13.352;2023-12-20T07:45:12;6.20;99.90
41262;DHT22;29629;52.532;13.352;2023-12-20T07:47:39;6.20;99.90
41262;DHT22;29629;52.532;13.352;2023-12-20T07:50:08;6.20;99.90
41262;DHT22;29629;52.532;13.352;2023-12-20T07:52:35;6.20;99.90
41262;DHT22;29629;52.532;13.352;2023-12-20T07:55:02;6.10;99.90
41262;DHT22;29629;52.532;13.352;2023-12-20T07:57:30;6.20;99.90
41262;DHT22;29629;52.532;13.352;2023-12-20T07:59:57;6.20;99.90
41262;DHT22;29629;52.532;13.352;2023-12-20T08:02:23;6.30;99.90
41262;DHT22;29629;52.532;13.352;2023-12-20T08:04:50;6.30;99.90
41262;DHT22;29629;52.532;13.352;2023-12-20T08:07:19;6.30;99.90
41262;DHT22;29629;52.532;13.352;2023-12-20T08:09:45;6.30;99.90
41262;DHT22;29629;52.532;13.352;2023-12-20T08:12:12;6.30;99.90
41262;DHT22;29629;52.532;13.352;2023-12-20T08:14:42;6.30;99.90
41262;DHT22;29629;52.532;13.352;2023-12-20T08:17:09;6.30;99.90
41262;DHT22;29629;52.532;13.352;2023-12-20T08:19:36;6.30;99.90
41262;DHT22;29629;52.532;13.352;2023-12-20T08:22:03;6.30;99.90
41262;DHT22;29629;52.532;13.352;2023-12-20T08:24:31;6.40;99.90
41262;DHT22;29629;52.532;13.352;2023-12-20T08:26:58;6.40;99.90
41262;DHT22;29629;52.532;13.352;2023-12-20T08:29:25;6.40;99.90
41262;DHT22;29629;52.532;13.352;2023-12-20T08:31:54;6.30;99.90
41262;DHT22;29629;52.532;13.352;2023-12-20T08:34:21;6.30;99.90
41262;DHT22;29629;52.532;13.352;2023-12-20T08:36:49;6.40;99.90
41262;DHT22;29629;52.532;13.352;2023-12-20T08:39:16;6.30;99.90
41262;DHT22;29629;52.532;13.352;2023-12-20T08:41:45;6.40;99.90
41262;DHT22;29629;52.532;13.352;2023-12-20T08:44:12;6.40;99.90
41262;DHT22;29629;52.532;13.352;2023-12-20T08:46:39;6.50;99.90
41262;DHT22;29629;52.532;13.352;2023-12-20T08:49:05;6.60;99.90
41262;DHT22;29629;52.532;13.352;2023-12-20T08:51:32;6.50;99.90
41262;DHT22;29629;52.532;13.352;2023-12-20T08:53:59;6.50;99.90
41262;DHT22;29629;52.532;13.352;2023-12-20T08:56:26;6.50;99.90
41262;DHT22;29629;52.532;13.352;2023-12-20T08:58:54;6.60;99.90
41262;DHT22;29629;52.532;13.352;2023-12-20T09:01:21;6.50;99.90
41262;DHT22;29629;52.532;13.352;2023-12-20T09:03:48;6.60;99.90
41262;DHT22;29629;52.532;13.352;2023-12-20T09:06:15;6.60;99.90
41262;DHT22;29629;52.532;13.352;2023-12-20T09:08:42;6.60;99.90
41262;DHT22;29629;52.532;13.352;2023-12-20T09:11:10;6.80;99.90
41262;DHT22;29629;52.532;13.352;2023-12-20T09:13:37;6.90;99.90
41262;DHT22;29629;52.532;13.352;2023-12-20T09:16:06;6.90;99.90
41262;DHT22;29629;52.532;13.352;2023-12-20T09:18:32;6.90;99.90
41262;DHT22;29629;52.532;13.352;2023-12-20T09:20:59;6.80;99.90
41262;DHT22;29629;52.532;13.352;2023-12-20T09:23:27;6.80;99.90
41262;DHT22;29629;52.532;13.352;2023-12-20T09:25:54;6.90;99.90
41262;DHT22;29629;52.532;13.352;2023-12-20T09:28:21;6.90;99.90
41262;DHT22;29629;52.532;13.352;2023-12-20T09:30:48;6.90;99.90
41262;DHT22;29629;52.532;13.352;2023-12-20T09:33:16;6.90;99.90
41262;DHT22;29629;52.532;13.352;2023-12-20T09:35:43;6.80;99.90
41262;DHT22;29629;52.532;13.352;2023-12-20T09:38:10;6.90;99.90
41262;DHT22;29629;52.532;13.352;2023-12-20T09:40:41;7.00;99.90
41262;DHT22;29629;52.532;13.352;2023-12-20T09:43:11;7.00;99.90
41262;DHT22;29629;52.532;13.352;2023-12-20T09:45:39;7.00;99.90
41262;DHT22;29629;52.532;13.352;2023-12-20T09:48:07;7.00;99.90
41262;DHT22;29629;52.532;13.352;2023-12-20T09:50:37;7.00;99.90
41262;DHT22;29629;52.532;13.352;2023-12-20T09:53:05;7.00;99.90
41262;DHT22;29629;52.532;13.352;2023-12-20T09:55:36;7.00;99.90
41262;DHT22;29629;52.532;13.352;2023-12-20T09:58:03;7.00;99.90
41262;DHT22;29629;52.532;13.352;2023-12-20T10:00:31;7.00;99.90
41262;DHT22;29629;52.532;13.352;2023-12-20T10:02:59;7.00;99.90
41262;DHT22;29629;52.532;13.352;2023-12-20T10:05:28;7.00;99.90
41262;DHT22;29629;52.532;13.352;2023-12-20T10:07:57;7.10;99.90
41262;DHT22;29629;52.532;13.352;2023-12-20T10:10:24;7.10;99.90
41262;DHT22;29629;52.532;13.352;2023-12-20T10:13:02;7.00;99.90
41262;DHT22;29629;52.532;13.352;2023-12-20T10:15:30;7.10;99.90
41262;DHT22;29629;52.532;13.352;2023-12-20T10:17:57;7.10;99.90
41262;DHT22;29629;52.532;13.352;2023-12-20T10:20:24;7.10;99.90
41262;DHT22;29629;52.532;13.352;2023-12-20T10:22:52;7.10;99.90
41262;DHT22;29629;52.532;13.352;2023-12-20T10:25:21;7.10;99.90
41262;DHT22;29629;52.532;13.352;2023-12-20T10:27:50;7.10;99.90
41262;DHT22;29629;52.532;13.352;2023-12-20T10:30:34;7.10;99.90
41262;DHT22;29629;52.532;13.352;2023-12-20T10:33:02;7.20;99.90
41262;DHT22;29629;52.532;13.352;2023-12-20T10:35:29;7.10;99.90
41262;DHT22;29629;52.532;13.352;2023-12-20T10:37:56;7.10;99.90
41262;DHT22;29629;52.532;13.352;2023-12-20T10:40:27;7.10;99.90
41262;DHT22;29629;52.532;13.352;2023-12-20T10:42:56;7.10;99.90
41262;DHT22;29629;52.532;13.352;2023-12-20T10:45:24;7.10;99.90
41262;DHT22;29629;52.532;13.352;2023-12-20T10:47:51;7.30;99.90
41262;DHT22;29629;52.532;13.352;2023-12-20T10:50:19;7.30;99.90
41262;DHT22;29629;52.532;13.352;2023-12-20T10:52:47;7.10;99.90
41262;DHT22;29629;52.532;13.352;2023-12-20T10:55:14;7.20;99.90
41262;DHT22;29629;52.532;13.352;2023-12-20T10:57:43;7.20;99.90
41262;DHT22;29629;52.532;13.352;2023-12-20T11:00:18;7.20;99.90
41262;DHT22;29629;52.532;13.352;2023-12-20T11:02:45;7.20;99.90
41262;DHT22;29629;52.532;13.352;2023-12-20T11:05:22;7.20;99.90
41262;DHT22;29629;52.532;13.352;2023-12-20T11:07:57;7.20;99.90
41262;DHT22;29629;52.532;13.352;2023-12-20T11:10:29;7.20;99.90
41262;DHT22;29629;52.532;13.352;2023-12-20T11:13:03;7.10;99.90
41262;DHT22;29629;52.532;13.352;2023-12-20T11:15:35;7.10;99.90
41262;DHT22;29629;52.532;13.352;2023-12-20T11:18:04;7.10;99.90
41262;DHT22;29629;52.532;13.352;2023-12-20T11:20:36;7.20;99.90
41262;DHT22;29629;52.532;13.352;2023-12-20T11:23:04;7.20;99.90
41262;DHT22;29629;52.532;13.352;2023-12-20T11:25:46;7.10;99.90
41262;DHT22;29629;52.532;13.352;2023-12-20T11:28:14;7.20;99.90
41262;DHT22;29629;52.532;13.352;2023-12-20T11:30:47;7.20;99.90
41262;DHT22;29629;52.532;13.352;2023-12-20T11:33:15;7.10;99.90
41262;DHT22;29629;52.532;13.352;2023-12-20T11:35:42;7.00;99.90
41262;DHT22;29629;52.532;13.352;2023-12-20T11:38:09;7.00;99.90
41262;DHT22;29629;52.532;13.352;2023-12-20T11:40:37;7.10;99.90
41262;DHT22;29629;52.532;13.352;2023-12-20T11:43:04;7.00;99.90
41262;DHT22;29629;52.532;13.352;2023-12-20T11:45:34;7.00;99.90
41262;DHT22;29629;52.532;13.352;2023-12-20T11:48:02;7.10;99.90
41262;DHT22;29629;52.532;13.352;2023-12-20T11:50:29;7.10;99.90
41262;DHT22;29629;52.532;13.352;2023-12-20T11:52:56;7.10;99.90
41262;DHT22;29629;52.532;13.352;2023-12-20T11:55:24;7.10;99.90
41262;DHT22;29629;52.532;13.352;2023-12-20T11:57:51;7.10;99.90
41262;DHT22;29629;52.532;13.352;2023-12-20T12:00:18;7.10;99.90
41262;DHT22;29629;52.532;13.352;2023-12-20T12:02:57;7.00;99.90
41262;DHT22;29629;52.532;13.352;2023-12-20T12:05:24;7.10;99.90
41262;DHT22;29629;52.532;13.352;2023-12-20T12:07:51;7.20;99.90
41262;DHT22;29629;52.532;13.352;2023-12-20T12:10:18;7.20;99.90
41262;DHT22;29629;52.532;13.352;2023-12-20T12:12:45;7.20;99.90
41262;DHT22;29629;52.532;13.352;2023-12-20T12:15:13;7.10;99.90
41262;DHT22;29629;52.532;13.352;2023-12-20T12:17:41;7.20;99.90
41262;DHT22;29629;52.532;13.352;2023-12-20T12:20:10;7.20;99.90
41262;DHT22;29629;52.532;13.352;2023-12-20T12:22:38;7.10;99.90
41262;DHT22;29629;52.532;13.352;2023-12-20T12:25:12;7.20;99.90
41262;DHT22;29629;52.532;13.352;2023-12-20T12:27:43;7.20;99.90
41262;DHT22;29629;52.532;13.352;2023-12-20T12:30:10;7.10;99.90
41262;DHT22;29629;52.532;13.352;2023-12-20T12:32:38;7.10;99.90
41262;DHT22;29629;52.532;13.352;2023-12-20T12:35:06;7.00;99.90
41262;DHT22;29629;52.532;13.352;2023-12-20T12:37:37;7.00;99.90
41262;DHT22;29629;52.532;13.352;2023-12-20T12:40:06;6.90;99.90
41262;DHT22;29629;52.532;13.352;2023-12-20T12:42:33;6.80;99.90
41262;DHT22;29629;52.532;13.352;2023-12-20T12:44:59;6.80;99.90
41262;DHT22;29629;52.532;13.352;2023-12-20T12:47:26;6.70;99.90
41262;DHT22;29629;52.532;13.352;2023-12-20T12:49:54;6.70;99.90
41262;DHT22;29629;52.532;13.352;2023-12-20T12:52:20;6.80;99.90
41262;DHT22;29629;52.532;13.352;2023-12-20T12:54:49;6.80;99.90
41262;DHT22;29629;52.532;13.352;2023-12-20T12:57:16;6.80;99.90
41262;DHT22;29629;52.532;13.352;2023-12-20T12:59:43;6.90;99.90
41262;DHT22;29629;52.532;13.352;2023-12-20T13:02:11;6.90;99.90
41262;DHT22;29629;52.532;13.352;2023-12-20T13:04:38;6.90;99.90
41262;DHT22;29629;52.532;13.352;2023-12-20T13:07:06;6.90;99.90
41262;DHT22;29629;52.532;13.352;2023-12-20T13:09:33;6.90;99.90
41262;DHT22;29629;52.532;13.352;2023-12-20T13:12:01;6.90;99.90
41262;DHT22;29629;52.532;13.352;2023-12-20T13:14:30;6.80;99.90
41262;DHT22;29629;52.532;13.352;2023-12-20T13:16:58;6.90;99.90
41262;DHT22;29629;52.532;13.352;2023-12-20T13:19:25;6.70;99.90
41262;DHT22;29629;52.532;13.352;2023-12-20T13:21:53;6.50;99.90
41262;DHT22;29629;52.532;13.352;2023-12-20T13:24:20;6.30;99.90
41262;DHT22;29629;52.532;13.352;2023-12-20T13:26:47;6.10;99.90
41262;DHT22;29629;52.532;13.352;2023-12-20T13:29:15;6.10;99.90
41262;DHT22;29629;52.532;13.352;2023-12-20T13:31:42;6.10;99.90
41262;DHT22;29629;52.532;13.352;2023-12-20T13:34:09;6.30;99.90
41262;DHT22;29629;52.532;13.352;2023-12-20T13:36:37;6.40;99.90
41262;DHT22;29629;52.532;13.352;2023-12-20T13:39:04;6.40;99.90
41262;DHT22;29629;52.532;13.352;2023-12-20T13:41:31;6.30;99.90
41262;DHT22;29629;52.532;13.352;2023-12-20T13:43:58;6.40;99.90
41262;DHT22;29629;52.532;13.352;2023-12-20T13:46:26;6.40;99.90
41262;DHT22;29629;52.532;13.352;2023-12-20T13:48:53;6.30;99.90
41262;DHT22;29629;52.532;13.352;2023-12-20T13:51:20;6.40;99.90
41262;DHT22;29629;52.532;13.352;2023-12-20T13:53:47;6.30;99.90
41262;DHT22;29629;52.532;13.352;2023-12-20T13:56:14;6.30;99.90
41262;DHT22;29629;52.532;13.352;2023-12-20T13:58:41;6.20;99.90
41262;DHT22;29629;52.532;13.352;2023-12-20T14:01:08;6.20;99.90
41262;DHT22;29629;52.532;13.352;2023-12-20T14:03:37;6.20;99.90
41262;DHT22;29629;52.532;13.352;2023-12-20T14:06:04;6.10;99.90
41262;DHT22;29629;52.532;13.352;2023-12-20T14:08:31;6.10;99.90
41262;DHT22;29629;52.532;13.352;2023-12-20T14:10:58;6.10;99.90
41262;DHT22;29629;52.532;13.352;2023-12-20T14:13:26;6.10;99.90
41262;DHT22;29629;52.532;13.352;2023-12-20T14:15:53;6.00;99.90
41262;DHT22;29629;52.532;13.352;2023-12-20T14:18:21;6.00;99.90
41262;DHT22;29629;52.532;13.352;2023-12-20T14:20:49;6.00;99.90
41262;DHT22;29629;52.532;13.352;2023-12-20T14:23:16;6.00;99.90
41262;DHT22;29629;52.532;13.352;2023-12-20T14:25:43;6.00;99.90
41262;DHT22;29629;52.532;13.352;2023-12-20T14:28:10;6.00;99.90
41262;DHT22;29629;52.532;13.352;2023-12-20T14:30:39;6.00;99.90
41262;DHT22;29629;52.532;13.352;2023-12-20T14:33:07;6.00;99.90
41262;DHT22;29629;52.532;13.352;2023-12-20T14:35:34;6.00;99.90
41262;DHT22;29629;52.532;13.352;2023-12-20T14:38:02;6.10;99.90
41262;DHT22;29629;52.532;13.352;2023-12-20T14:40:29;6.00;99.90
41262;DHT22;29629;52.532;13.352;2023-12-20T14:42:56;6.00;99.90
41262;DHT22;29629;52.532;13.352;2023-12-20T14:45:23;6.00;99.90
41262;DHT22;29629;52.532;13.352;2023-12-20T14:47:50;6.00;99.90
41262;DHT22;29629;52.532;13.352;2023-12-20T14:50:17;6.00;99.90
41262;DHT22;29629;52.532;13.352;2023-12-20T14:52:44;6.00;99.90
41262;DHT22;29629;52.532;13.352;2023-12-20T14:55:13;6.10;99.90
41262;DHT22;29629;52.532;13.352;2023-12-20T14:57:40;6.10;99.90
41262;DHT22;29629;52.532;13.352;2023-12-20T15:00:08;6.10;99.90
41262;DHT22;29629;52.532;13.352;2023-12-20T15:02:35;6.10;99.90
41262;DHT22;29629;52.532;13.352;2023-12-20T15:05:01;6.10;99.90
41262;DHT22;29629;52.532;13.352;2023-12-20T15:07:28;6.10;99.90
41262;DHT22;29629;52.532;13.352;2023-12-20T15:09:55;6.00;99.90
41262;DHT22;29629;52.532;13.352;2023-12-20T15:12:23;6.00;99.90
41262;DHT22;29629;52.532;13.352;2023-12-20T15:14:51;6.00;99.90
41262;DHT22;29629;52.532;13.352;2023-12-20T15:17:18;6.00;99.90
41262;DHT22;29629;52.532;13.352;2023-12-20T15:19:44;6.00;99.90
41262;DHT22;29629;52.532;13.352;2023-12-20T15:22:12;6.00;99.90
41262;DHT22;29629;52.532;13.352;2023-12-20T15:24:38;6.00;99.90
41262;DHT22;29629;52.532;13.352;2023-12-20T15:27:07;6.00;99.90
41262;DHT22;29629;52.532;13.352;2023-12-20T15:29:37;5.90;99.90
41262;DHT22;29629;52.532;13.352;2023-12-20T15:32:04;5.90;99.90